createdAt,value
2023-04-13T00:01:13.260Z,99615.31
2023-04-13T00:03:18.187Z,99617.91
2023-04-13T00:05:21.887Z,99617.16
2023-04-13T00:07:28.353Z,99615.50
2023-04-13T00:09:32.147Z,99620.69
2023-04-13T00:11:35.467Z,99622.56
2023-04-13T00:13:41.588Z,99609.69
2023-04-13T00:15:45.208Z,99612.38
2023-04-13T00:17:48.845Z,99612.56
2023-04-13T00:19:53.869Z,99609.22
2023-04-13T00:21:59.378Z,99613.75
2023-04-13T00:24:04.153Z,99614.75
2023-04-13T00:26:07.918Z,99609.75
2023-04-13T00:28:11.948Z,99602.88
2023-04-13T00:30:16.892Z,99608.06
2023-04-13T00:32:20.246Z,99607.25
2023-04-13T00:34:23.636Z,99606.41
2023-04-13T00:36:28.538Z,99605.56
2023-04-13T00:38:33.300Z,99604.75
2023-04-13T00:40:38.772Z,99598.63
2023-04-13T00:42:44.574Z,99600.38
2023-04-13T00:44:47.976Z,99590.84
2023-04-13T00:46:54.450Z,99599.56
2023-04-13T00:48:58.247Z,99596.22
2023-04-13T00:51:01.689Z,99597.22
2023-04-13T00:53:09.761Z,99598.25
2023-04-13T00:55:14.627Z,99596.69
2023-04-13T00:57:21.055Z,99596.78
2023-04-13T00:59:24.857Z,99595.94
2023-04-13T01:01:30.385Z,99596.13
2023-04-13T01:03:33.816Z,99597.13
2023-04-13T01:05:43.632Z,99594.53
2023-04-13T01:07:55.596Z,99601.38
2023-04-13T01:10:07.013Z,99602.31
2023-04-13T01:12:15.186Z,99597.13
2023-04-13T01:14:26.227Z,99598.78
2023-04-13T01:16:33.150Z,99593.59
2023-04-13T01:18:41.770Z,99598.78
2023-04-13T01:20:50.440Z,99598.06
2023-04-13T01:22:57.355Z,99597.31
2023-04-13T01:25:18.939Z,99596.47
2023-04-13T01:27:34.907Z,99593.13
2023-04-13T01:29:39.567Z,99606.19
2023-04-13T01:31:44.047Z,99597.66
2023-04-13T01:33:48.466Z,99600.34
2023-04-13T01:35:52.139Z,99599.50
2023-04-13T01:37:55.688Z,99599.50
2023-04-13T01:40:01.214Z,99591.81
2023-04-13T01:42:16.424Z,99590.13
2023-04-13T01:44:22.379Z,99590.97
2023-04-13T01:46:30.476Z,99589.34
2023-04-13T01:48:46.391Z,99594.53
2023-04-13T01:51:13.546Z,99587.66
2023-04-13T01:53:26.795Z,99581.72
2023-04-13T01:55:31.342Z,99586.16
2023-04-13T01:57:36.608Z,99581.16
2023-04-13T01:59:44.987Z,99583.00
2023-04-13T02:01:52.892Z,99584.84
2023-04-13T02:03:57.591Z,99578.91
2023-04-13T02:06:07.489Z,99579.09
2023-04-13T02:08:11.829Z,99580.94
2023-04-13T02:10:21.141Z,99576.84
2023-04-13T02:12:25.017Z,99590.91
2023-04-13T02:14:28.380Z,99593.78
2023-04-13T02:16:33.337Z,99591.44
2023-04-13T02:18:37.139Z,99595.94
2023-04-13T02:20:45.354Z,99597.13
2023-04-13T02:22:49.090Z,99593.13
2023-04-13T02:24:52.786Z,99590.81
2023-04-13T02:26:56.631Z,99589.31
2023-04-13T02:29:01.142Z,99587.63
2023-04-13T02:31:05.961Z,99593.91
2023-04-13T02:33:11.225Z,99593.97
2023-04-13T02:35:14.628Z,99604.50
2023-04-13T02:37:18.068Z,99604.59
2023-04-13T02:39:21.406Z,99605.59
2023-04-13T02:41:25.769Z,99611.75
2023-04-13T02:43:30.019Z,99606.66
2023-04-13T02:45:33.665Z,99614.56
2023-04-13T02:47:37.794Z,99612.88
2023-04-13T02:49:43.048Z,99615.56
2023-04-13T02:51:56.475Z,99609.53
2023-04-13T02:54:12.404Z,99618.22
2023-04-13T02:56:22.638Z,99614.88
2023-04-13T02:58:32.564Z,99620.06
2023-04-13T03:00:41.320Z,99614.03
2023-04-13T03:02:48.547Z,99606.28
2023-04-13T03:04:56.407Z,99604.53
2023-04-13T03:07:05.209Z,99603.69
2023-04-13T03:09:09.572Z,99600.19
2023-04-13T03:11:23.601Z,99601.00
2023-04-13T03:13:40.967Z,99602.78
2023-04-13T03:15:44.555Z,99604.53
2023-04-13T03:17:48.996Z,99600.25
2023-04-13T03:19:58.891Z,99601.19
2023-04-13T03:22:02.836Z,99599.50
2023-04-13T03:24:07.472Z,99599.50
2023-04-13T03:26:10.862Z,99594.34
2023-04-13T03:28:14.750Z,99596.09
2023-04-13T03:30:21.740Z,99599.50
2023-04-13T03:32:33.214Z,99597.84
2023-04-13T03:34:37.786Z,99596.16
2023-04-13T03:36:47.632Z,99599.66
2023-04-13T03:38:52.745Z,99593.66
2023-04-13T03:40:56.738Z,99593.75
2023-04-13T03:43:01.093Z,99600.66
2023-04-13T03:45:08.186Z,99603.19
2023-04-13T03:47:12.310Z,99603.19
2023-04-13T03:49:16.696Z,99598.00
2023-04-13T03:51:20.137Z,99600.50
2023-04-13T03:53:26.774Z,99593.56
2023-04-13T03:55:32.196Z,99605.53
2023-04-13T03:57:41.323Z,99596.00
2023-04-13T03:59:49.991Z,99597.69
2023-04-13T04:02:03.118Z,99597.59
2023-04-13T04:04:08.350Z,99588.81
2023-04-13T04:06:12.767Z,99592.16
2023-04-13T04:08:20.296Z,99592.91
2023-04-13T04:10:27.364Z,99593.63
2023-04-13T04:12:32.545Z,99601.31
2023-04-13T04:14:36.032Z,99593.47
2023-04-13T04:16:48.172Z,99584.88
2023-04-13T04:18:54.205Z,99590.88
2023-04-13T04:20:57.482Z,99594.41
2023-04-13T04:23:04.974Z,99595.31
2023-04-13T04:25:21.939Z,99597.91
2023-04-13T04:27:29.269Z,99603.09
2023-04-13T04:29:37.650Z,99602.25
2023-04-13T04:31:58.093Z,99600.50
2023-04-13T04:34:01.896Z,99602.16
2023-04-13T04:36:14.088Z,99601.25
2023-04-13T04:38:26.550Z,99612.34
2023-04-13T04:40:30.920Z,99603.66
2023-04-13T04:42:35.876Z,99606.84
2023-04-13T04:44:41.333Z,99610.03
2023-04-13T04:46:49.157Z,99602.84
2023-04-13T04:48:53.342Z,99600.81
2023-04-13T04:50:59.923Z,99612.50
2023-04-13T04:53:09.029Z,99605.31
2023-04-13T04:55:13.437Z,99603.28
2023-04-13T04:57:19.339Z,99601.28
2023-04-13T04:59:24.155Z,99606.25
2023-04-13T05:01:35.073Z,99612.03
2023-04-13T05:03:45.082Z,99607.50
2023-04-13T05:06:01.099Z,99607.25
2023-04-13T05:08:07.785Z,99609.66
2023-04-13T05:10:17.253Z,99610.25
2023-04-13T05:12:27.914Z,99606.53
2023-04-13T05:14:32.740Z,99613.03
2023-04-13T05:16:36.236Z,99616.19
2023-04-13T05:18:47.672Z,99608.91
2023-04-13T05:21:15.439Z,99611.94
2023-04-13T05:23:19.300Z,99608.91
2023-04-13T05:25:29.049Z,99611.06
2023-04-13T05:27:37.110Z,99612.38
2023-04-13T05:29:42.570Z,99606.59
2023-04-13T05:31:46.729Z,99602.72
2023-04-13T05:33:51.068Z,99607.56
2023-04-13T05:35:54.493Z,99603.63
2023-04-13T05:38:00.168Z,99602.34
2023-04-13T05:40:14.524Z,99612.16
2023-04-13T05:42:19.000Z,99605.47
2023-04-13T05:44:23.119Z,99604.91
2023-04-13T05:46:30.180Z,99613.69
2023-04-13T05:48:36.526Z,99619.13
2023-04-13T05:50:43.833Z,99606.50
2023-04-13T05:52:48.077Z,99618.81
2023-04-13T05:54:51.549Z,99626.09
2023-04-13T05:56:57.868Z,99630.06
2023-04-13T05:59:03.218Z,99625.31
2023-04-13T06:01:08.128Z,99634.28
2023-04-13T06:03:13.685Z,99623.91
2023-04-13T06:05:19.895Z,99625.63
2023-04-13T06:07:23.706Z,99627.34
2023-04-13T06:09:27.269Z,99634.63
2023-04-13T06:11:30.613Z,99634.31
2023-04-13T06:13:35.739Z,99631.59
2023-04-13T06:15:40.368Z,99633.25
2023-04-13T06:17:43.689Z,99633.16
2023-04-13T06:19:49.201Z,99624.41
2023-04-13T06:21:52.662Z,99625.16
2023-04-13T06:23:56.095Z,99632.75
2023-04-13T06:26:09.797Z,99635.88
2023-04-13T06:28:22.159Z,99625.91
2023-04-13T06:30:28.126Z,99612.56
2023-04-13T06:32:34.094Z,99620.06
2023-04-13T06:34:38.380Z,99624.94
2023-04-13T06:36:44.793Z,99624.75
2023-04-13T06:38:50.691Z,99624.53
2023-04-13T06:40:54.047Z,99625.25
2023-04-13T06:42:57.483Z,99619.13
2023-04-13T06:45:16.872Z,99612.97
2023-04-13T06:47:20.935Z,99621.50
2023-04-13T06:49:24.814Z,99621.31
2023-04-13T06:51:28.444Z,99622.72
2023-04-13T06:53:35.735Z,99634.59
2023-04-13T06:55:39.083Z,99627.53
2023-04-13T06:57:42.955Z,99629.19
2023-04-13T06:59:46.329Z,99637.72
2023-04-13T07:01:49.794Z,99632.41
2023-04-13T07:03:53.661Z,99630.44
2023-04-13T07:05:57.448Z,99636.16
2023-04-13T07:08:00.969Z,99635.72
2023-04-13T07:10:06.558Z,99629.25
2023-04-13T07:12:11.312Z,99630.59
2023-04-13T07:14:14.777Z,99635.47
2023-04-13T07:16:19.078Z,99634.09
2023-04-13T07:18:23.252Z,99626.56
2023-04-13T07:20:26.900Z,99632.91
2023-04-13T07:22:33.227Z,99634.13
2023-04-13T07:24:37.068Z,99627.50
2023-04-13T07:26:45.918Z,99636.56
2023-04-13T07:28:49.422Z,99637.06
2023-04-13T07:30:54.109Z,99640.78
2023-04-13T07:32:57.952Z,99639.25
2023-04-13T07:35:02.671Z,99635.97
2023-04-13T07:37:09.594Z,99636.25
2023-04-13T07:39:13.010Z,99626.75
2023-04-13T07:41:22.828Z,99637.47
2023-04-13T07:43:31.375Z,99647.94
2023-04-13T07:45:37.459Z,99655.94
2023-04-13T07:47:41.594Z,99653.69
2023-04-13T07:49:45.914Z,99649.41
2023-04-13T07:51:55.035Z,99656.69
2023-04-13T07:53:59.592Z,99657.28
2023-04-13T07:56:05.083Z,99663.34
2023-04-13T07:58:10.057Z,99666.06
2023-04-13T08:00:17.070Z,99678.19
2023-04-13T08:02:24.039Z,99667.50
2023-04-13T08:04:30.417Z,99678.53
2023-04-13T08:06:36.017Z,99675.81
2023-04-13T08:08:39.821Z,99679.81
2023-04-13T08:10:43.215Z,99675.31
2023-04-13T08:12:46.658Z,99680.66
2023-04-13T08:14:54.311Z,99684.38
2023-04-13T08:17:01.357Z,99687.94
2023-04-13T08:19:06.535Z,99698.38
2023-04-13T08:21:15.138Z,99691.25
2023-04-13T08:23:20.427Z,99710.50
2023-04-13T08:25:23.802Z,99706.34
2023-04-13T08:27:27.130Z,99710.13
2023-04-13T08:29:30.492Z,99712.97
2023-04-13T08:31:33.849Z,99718.53
2023-04-13T08:33:42.543Z,99717.22
2023-04-13T08:35:46.374Z,99725.38
2023-04-13T08:37:50.299Z,99723.88
2023-04-13T08:39:59.691Z,99719.47
2023-04-13T08:42:04.316Z,99727.19
2023-04-13T08:44:13.581Z,99727.78
2023-04-13T08:46:21.434Z,99726.38
2023-04-13T08:48:30.300Z,99735.41
2023-04-13T08:50:39.553Z,99732.47
2023-04-13T08:52:45.412Z,99745.16
2023-04-13T08:54:52.338Z,99740.41
2023-04-13T08:57:01.157Z,99740.91
2023-04-13T08:59:07.024Z,99744.72
2023-04-13T09:01:13.541Z,99755.44
2023-04-13T09:03:25.407Z,99748.41
2023-04-13T09:05:29.903Z,99753.28
2023-04-13T09:07:39.108Z,99749.22
2023-04-13T09:09:49.073Z,99757.53
2023-04-13T09:11:52.550Z,99753.22
2023-04-13T09:13:59.221Z,99764.84
2023-04-13T09:16:03.942Z,99775.56
2023-04-13T09:18:19.046Z,99781.84
2023-04-13T09:20:27.864Z,99783.84
2023-04-13T09:22:32.012Z,99788.59
2023-04-13T09:24:42.164Z,99792.41
2023-04-13T09:26:47.282Z,99782.38
2023-04-13T09:28:54.851Z,99794.28
2023-04-13T09:31:03.893Z,99792.94
2023-04-13T09:33:08.553Z,99786.38
2023-04-13T09:35:13.247Z,99796.34
2023-04-13T09:37:18.655Z,99798.09
2023-04-13T09:39:26.175Z,99803.41
2023-04-13T09:41:32.046Z,99808.38
2023-04-13T09:43:38.793Z,99814.59
2023-04-13T09:45:44.936Z,99816.94
2023-04-13T09:47:48.606Z,99815.38
2023-04-13T09:49:52.132Z,99819.00
2023-04-13T09:51:56.225Z,99818.50
2023-04-13T09:53:59.617Z,99827.06
2023-04-13T09:56:03.678Z,99827.06
2023-04-13T09:58:12.448Z,99831.56
2023-04-13T10:00:21.071Z,99834.09
2023-04-13T10:02:25.134Z,99849.31
2023-04-13T10:04:28.839Z,99851.22
2023-04-13T10:06:32.453Z,99845.91
2023-04-13T10:08:38.639Z,99852.19
2023-04-13T10:10:42.945Z,99850.47
2023-04-13T10:12:53.786Z,99857.38
2023-04-13T10:15:12.795Z,99851.38
2023-04-13T10:17:38.973Z,99858.06
2023-04-13T10:19:47.081Z,99853.78
2023-04-13T10:21:52.902Z,99865.09
2023-04-13T10:23:57.035Z,99873.31
2023-04-13T10:26:03.533Z,99869.22
2023-04-13T10:28:07.124Z,99867.28
2023-04-13T10:30:19.445Z,99874.22
2023-04-13T10:32:24.174Z,99876.84
2023-04-13T10:34:29.152Z,99882.09
2023-04-13T10:36:39.250Z,99889.69
2023-04-13T10:38:46.133Z,99886.38
2023-04-13T10:40:50.002Z,99886.69
2023-04-13T10:42:53.608Z,99893.09
2023-04-13T10:44:57.253Z,99893.13
2023-04-13T10:47:06.231Z,99896.63
2023-04-13T10:49:09.916Z,99892.91
2023-04-13T10:51:13.739Z,99895.16
2023-04-13T10:53:26.897Z,99899.97
2023-04-13T10:55:30.894Z,99893.16
2023-04-13T10:57:36.041Z,99906.00
2023-04-13T11:01:54.076Z,99920.94
2023-04-13T11:04:05.323Z,99932.13
2023-04-13T11:06:10.250Z,99919.50
2023-04-13T11:08:18.832Z,99916.81
2023-04-13T11:10:27.267Z,99910.72
2023-04-13T11:12:30.674Z,99914.63
2023-04-13T11:14:36.166Z,99914.69
2023-04-13T11:16:49.434Z,99922.47
2023-04-13T11:19:04.184Z,99923.13
2023-04-13T11:21:15.258Z,99923.72
2023-04-13T11:23:20.053Z,99910.50
2023-04-13T11:25:23.599Z,99942.03
2023-04-13T11:27:27.348Z,99944.22
2023-04-13T11:29:30.662Z,99939.47
2023-04-13T11:31:39.050Z,99937.53
2023-04-13T11:33:44.571Z,99953.09
2023-04-13T11:35:50.105Z,99950.38
2023-04-13T11:37:56.584Z,99956.44
2023-04-13T11:40:08.956Z,99951.94
2023-04-13T11:42:13.262Z,99957.19
2023-04-13T11:44:18.548Z,99956.94
2023-04-13T11:46:25.664Z,99950.34
2023-04-13T11:48:29.642Z,99962.69
2023-04-13T11:50:33.575Z,99964.69
2023-04-13T11:52:39.436Z,99957.00
2023-04-13T11:54:44.708Z,99956.91
2023-04-13T11:56:49.166Z,99953.56
2023-04-13T11:58:53.443Z,99958.47
2023-04-13T12:00:59.986Z,99953.94
2023-04-13T12:03:15.214Z,99958.53
2023-04-13T12:05:33.505Z,99968.38
2023-04-13T12:07:43.007Z,99966.16
2023-04-13T12:12:11.970Z,99960.97
2023-04-13T12:17:01.731Z,99967.69
2023-04-13T12:18:54.981Z,99965.59
2023-04-13T12:21:02.769Z,99981.97
2023-04-13T12:23:22.832Z,99981.81
2023-04-13T12:25:35.518Z,99974.00
2023-04-13T12:27:41.704Z,99969.44
2023-04-13T12:29:45.109Z,99977.06
2023-04-13T12:31:48.472Z,99979.81
2023-04-13T12:33:52.441Z,99978.94
2023-04-13T12:35:55.786Z,99986.56
2023-04-13T12:38:00.319Z,99983.78
2023-04-13T12:40:09.688Z,99987.38
2023-04-13T12:42:13.353Z,99981.56
2023-04-13T12:44:17.244Z,99981.19
2023-04-13T12:46:21.448Z,99986.19
2023-04-13T12:48:24.807Z,99982.53
2023-04-13T12:50:28.224Z,99989.47
2023-04-13T12:52:32.407Z,99986.19
2023-04-13T12:54:36.179Z,99989.47
2023-04-13T12:56:41.482Z,99997.00
2023-04-13T12:58:44.919Z,99998.97
2023-04-13T13:00:48.460Z,99993.03
2023-04-13T13:02:59.439Z,99997.91
2023-04-13T13:05:10.495Z,100013.41
2023-04-13T13:07:14.046Z,100009.53
2023-04-13T13:09:17.734Z,100018.00
2023-04-13T13:11:21.158Z,100015.91
2023-04-13T13:13:25.994Z,100024.50
2023-04-13T13:15:29.411Z,100024.50
2023-04-13T13:17:32.873Z,100026.44
2023-04-13T13:19:36.367Z,100026.03
2023-04-13T13:21:39.759Z,100025.34
2023-04-13T13:23:43.120Z,100017.13
2023-04-13T13:25:57.389Z,100023.16
2023-04-13T13:28:14.824Z,100027.38
2023-04-13T13:30:20.158Z,100024.47
2023-04-13T13:32:23.683Z,100033.41
2023-04-13T13:34:27.217Z,100033.34
2023-04-13T13:36:30.872Z,100041.47
2023-04-13T13:38:36.392Z,100040.28
2023-04-13T13:40:40.051Z,100046.13
2023-04-13T13:42:52.021Z,100041.44
2023-04-13T13:44:56.242Z,100034.25
2023-04-13T13:47:01.293Z,100050.13
2023-04-13T13:49:06.485Z,100051.25
2023-04-13T13:51:39.030Z,100058.78
2023-04-13T13:53:44.489Z,100062.81
2023-04-13T13:55:49.879Z,100059.06
2023-04-13T13:57:53.786Z,100073.50
2023-04-13T13:59:57.245Z,100080.66
2023-04-13T14:02:02.673Z,100080.44
2023-04-13T14:04:06.846Z,100087.09
2023-04-13T14:06:10.474Z,100089.09
2023-04-13T14:08:13.900Z,100093.94
2023-04-13T14:10:17.485Z,100104.06
2023-04-13T14:12:20.935Z,100112.47
2023-04-13T14:14:24.351Z,100148.06
2023-04-13T14:16:27.745Z,100171.72
2023-04-13T14:18:32.708Z,100179.91
2023-04-13T14:20:38.688Z,100190.75
2023-04-13T14:22:42.881Z,100201.09
2023-04-13T14:24:46.529Z,100198.22
2023-04-13T14:26:49.971Z,100187.25
2023-04-13T14:28:53.570Z,100193.13
2023-04-13T14:30:57.070Z,100183.63
2023-04-13T14:33:00.907Z,100189.13
2023-04-13T14:35:06.212Z,100178.09
2023-04-13T14:37:10.072Z,100187.06
2023-04-13T14:39:13.487Z,100197.22
2023-04-13T14:41:16.849Z,100198.97
2023-04-13T14:43:20.304Z,100196.63
2023-04-13T14:45:24.015Z,100192.34
2023-04-13T14:47:27.406Z,100195.59
2023-04-13T14:49:30.930Z,100191.81
2023-04-13T14:51:35.837Z,100192.44
2023-04-13T14:53:39.234Z,100192.34
2023-04-13T14:55:42.665Z,100202.19
2023-04-13T14:57:46.219Z,100199.31
2023-04-13T14:59:49.910Z,100199.53
2023-04-13T15:01:53.739Z,100203.81
2023-04-13T15:03:57.594Z,100207.91
2023-04-13T15:06:03.850Z,100209.72
2023-04-13T15:08:11.748Z,100221.63
2023-04-13T15:10:15.226Z,100223.81
2023-04-13T15:12:18.607Z,100222.53
2023-04-13T15:14:22.560Z,100227.03
2023-04-13T15:16:26.199Z,100234.22
2023-04-13T15:18:29.679Z,100225.78
2023-04-13T15:20:33.080Z,100229.63
2023-04-13T15:22:36.998Z,100226.50
2023-04-13T15:24:41.963Z,100229.81
2023-04-13T15:26:45.553Z,100229.63
2023-04-13T15:28:48.951Z,100234.50
2023-04-13T15:30:53.044Z,100243.22
2023-04-13T15:32:58.136Z,100239.13
2023-04-13T15:35:01.649Z,100249.94
2023-04-13T15:37:05.042Z,100245.50
2023-04-13T15:39:08.358Z,100250.47
2023-04-13T15:41:13.154Z,100253.13
2023-04-13T15:43:16.631Z,100261.28
2023-04-13T15:45:20.958Z,100263.22
2023-04-13T15:47:24.410Z,100258.22
2023-04-13T15:49:27.819Z,100265.97
2023-04-13T15:51:32.078Z,100283.13
2023-04-13T15:53:35.514Z,100272.25
2023-04-13T15:55:38.956Z,100276.72
2023-04-13T15:57:43.713Z,100284.13
2023-04-13T15:59:47.133Z,100281.69
2023-04-13T16:01:51.645Z,100285.59
2023-04-13T16:03:55.954Z,100282.44
2023-04-13T16:05:59.456Z,100285.91
2023-04-13T16:08:03.343Z,100287.13
2023-04-13T16:10:08.312Z,100290.44
2023-04-13T16:12:12.179Z,100292.63
2023-04-13T16:14:17.531Z,100302.09
2023-04-13T16:16:20.946Z,100311.84
2023-04-13T16:18:28.798Z,100327.56
2023-04-13T16:20:32.304Z,100322.72
2023-04-13T16:22:37.495Z,100319.03
2023-04-13T16:24:41.170Z,100328.13
2023-04-13T16:26:45.066Z,100332.97
2023-04-13T16:28:48.351Z,100330.59
2023-04-13T16:30:53.141Z,100343.53
2023-04-13T16:32:56.778Z,100361.47
2023-04-13T16:35:00.173Z,100362.75
2023-04-13T16:37:03.523Z,100366.16
2023-04-13T16:39:12.043Z,100352.19
2023-04-13T16:41:16.897Z,100355.66
2023-04-13T16:43:20.494Z,100359.78
2023-04-13T16:45:24.604Z,100363.75
2023-04-13T16:47:29.580Z,100376.34
2023-04-13T16:49:33.542Z,100381.47
2023-04-13T16:51:36.902Z,100383.00
2023-04-13T16:53:44.088Z,100391.38
2023-04-13T16:55:50.888Z,100394.34
2023-04-13T16:57:54.315Z,100397.09
2023-04-13T17:00:00.213Z,100389.13
2023-04-13T17:02:03.611Z,100383.69
2023-04-13T17:04:08.812Z,100392.06
2023-04-13T17:06:12.246Z,100386.09
2023-04-13T17:08:17.055Z,100384.50
2023-04-13T17:10:20.696Z,100389.44
2023-04-13T17:12:24.662Z,100388.91
2023-04-13T17:14:29.410Z,100399.97
2023-04-13T17:16:32.794Z,100413.88
2023-04-13T17:18:36.377Z,100400.16
2023-04-13T17:20:41.156Z,100405.78
2023-04-13T17:22:45.070Z,100417.31
2023-04-13T17:24:48.361Z,100418.09
2023-04-13T17:26:52.004Z,100421.19
2023-04-13T17:28:55.581Z,100419.75
2023-04-13T17:30:58.877Z,100422.28
2023-04-13T17:33:02.281Z,100428.75
2023-04-13T17:35:06.971Z,100430.53
2023-04-13T17:37:12.090Z,100433.59
2023-04-13T17:39:15.601Z,100447.31
2023-04-13T17:41:19.094Z,100450.81
2023-04-13T17:43:22.707Z,100450.03
2023-04-13T17:45:26.241Z,100447.53
2023-04-13T17:47:29.621Z,100453.66
2023-04-13T17:49:34.375Z,100454.63
2023-04-13T17:51:37.658Z,100461.75
2023-04-13T17:53:42.483Z,100470.44
2023-04-13T17:55:45.816Z,100480.00
2023-04-13T17:57:49.175Z,100482.38
2023-04-13T17:59:52.835Z,100487.53
2023-04-13T18:01:56.374Z,100490.63
2023-04-13T18:04:00.888Z,100489.38
2023-04-13T18:06:06.162Z,100492.47
2023-04-13T18:08:09.594Z,100493.00
2023-04-13T18:10:14.857Z,100489.94
2023-04-13T18:12:20.812Z,100490.44
2023-04-13T18:14:24.218Z,100490.03
2023-04-13T18:16:28.022Z,100488.94
2023-04-13T18:18:31.364Z,100494.66
2023-04-13T18:20:34.915Z,100497.75
2023-04-13T18:22:38.290Z,100504.31
2023-04-13T18:24:41.657Z,100503.78
2023-04-13T18:26:47.266Z,100524.03
2023-04-13T18:28:50.613Z,100526.72
2023-04-13T18:30:53.970Z,100537.19
2023-04-13T18:32:57.387Z,100538.84
2023-04-13T18:35:00.799Z,100544.09
2023-04-13T18:37:04.384Z,100547.63
2023-04-13T18:39:07.722Z,100558.09
2023-04-13T18:41:11.474Z,100576.38
2023-04-13T18:43:16.337Z,100579.81
2023-04-13T18:45:19.813Z,100582.53
2023-04-13T18:47:24.283Z,100576.56
2023-04-13T18:49:27.947Z,100577.50
2023-04-13T18:51:32.907Z,100583.75
2023-04-13T18:53:36.300Z,100590.94
2023-04-13T18:55:39.717Z,100587.88
2023-04-13T18:57:43.151Z,100597.84
2023-04-13T18:59:48.568Z,100592.97
2023-04-13T19:01:52.806Z,100604.72
2023-04-13T19:03:56.474Z,100603.31
2023-04-13T19:05:59.946Z,100613.09
2023-04-13T19:08:06.257Z,100601.16
2023-04-13T19:10:10.340Z,100602.16
2023-04-13T19:12:13.808Z,100605.69
2023-04-13T19:14:17.178Z,100605.03
2023-04-13T19:16:22.571Z,100612.13
2023-04-13T19:18:26.127Z,100619.13
2023-04-13T19:20:29.458Z,100612.34
2023-04-13T19:22:35.556Z,100610.66
2023-04-13T19:24:39.026Z,100608.97
2023-04-13T19:26:42.578Z,100611.66
2023-04-13T19:28:47.445Z,100616.97
2023-04-13T19:30:50.960Z,100617.91
2023-04-13T19:32:56.182Z,100614.53
2023-04-13T19:34:59.722Z,100612.84
2023-04-13T19:37:03.225Z,100613.88
2023-04-13T19:39:08.131Z,100618.44
2023-04-13T19:41:11.624Z,100622.13
2023-04-13T19:43:20.638Z,100620.63
2023-04-13T19:45:24.061Z,100631.28
2023-04-13T19:47:27.520Z,100626.22
2023-04-13T19:49:33.272Z,100622.09
2023-04-13T19:51:36.745Z,100629.34
2023-04-13T19:53:40.075Z,100623.72
2023-04-13T19:55:43.445Z,100632.00
2023-04-13T19:57:47.128Z,100626.28
2023-04-13T19:59:50.447Z,100644.09
2023-04-13T20:01:54.211Z,100644.44
2023-04-13T20:03:58.229Z,100644.81
2023-04-13T20:06:03.415Z,100643.44
2023-04-13T20:08:06.806Z,100645.44
2023-04-13T20:10:12.500Z,100639.72
2023-04-13T20:12:16.381Z,100636.63
2023-04-13T20:14:19.699Z,100639.56
2023-04-13T20:16:24.445Z,100644.19
2023-04-13T20:18:27.760Z,100640.97
2023-04-13T20:20:32.398Z,100644.66
2023-04-13T20:22:37.264Z,100642.31
2023-04-13T20:24:40.633Z,100637.34
2023-04-13T20:26:44.676Z,100644.56
2023-04-13T20:28:48.088Z,100649.06
2023-04-13T20:30:51.498Z,100651.91
2023-04-13T20:32:54.891Z,100653.91
2023-04-13T20:34:58.291Z,100651.50
2023-04-13T20:37:01.998Z,100665.59
2023-04-13T20:39:07.138Z,100663.28
2023-04-13T20:41:13.812Z,100667.81
2023-04-13T20:43:17.790Z,100668.03
2023-04-13T20:45:21.596Z,100667.41
2023-04-13T20:47:25.963Z,100674.63
2023-04-13T20:49:32.001Z,100687.88
2023-04-13T20:51:35.400Z,100686.41
2023-04-13T20:53:38.761Z,100686.56
2023-04-13T20:55:43.792Z,100691.16
2023-04-13T20:57:47.497Z,100690.47
2023-04-13T20:59:51.874Z,100694.91
2023-04-13T21:01:55.521Z,100686.41
2023-04-13T21:03:59.486Z,100686.56
2023-04-13T21:06:03.185Z,100686.66
2023-04-13T21:08:06.729Z,100683.31
2023-04-13T21:10:11.095Z,100688.66
2023-04-13T21:12:17.035Z,100683.59
2023-04-13T21:14:23.524Z,100686.34
2023-04-13T21:16:27.419Z,100682.22
2023-04-13T21:18:30.828Z,100678.84
2023-04-13T21:20:34.283Z,100692.00
2023-04-13T21:22:37.824Z,100698.13
2023-04-13T21:24:41.493Z,100691.28
2023-04-13T21:26:44.921Z,100694.88
2023-04-13T21:28:49.718Z,100691.50
2023-04-13T21:30:53.118Z,100686.44
2023-04-13T21:32:56.543Z,100693.47
2023-04-13T21:35:00.569Z,100687.50
2023-04-13T21:37:04.058Z,100691.09
2023-04-13T21:39:07.371Z,100685.22
2023-04-13T21:41:15.595Z,100685.34
2023-04-13T21:43:18.952Z,100685.50
2023-04-13T21:45:23.812Z,100690.84
2023-04-13T21:47:27.196Z,100692.66
2023-04-13T21:49:30.644Z,100689.28
2023-04-13T21:51:33.930Z,100696.31
2023-04-13T21:53:37.838Z,100692.09
2023-04-13T21:55:41.203Z,100695.66
2023-04-13T21:57:44.498Z,100688.84
2023-04-13T21:59:47.779Z,100683.00
2023-04-13T22:01:52.600Z,100688.31
2023-04-13T22:03:56.096Z,100688.44
2023-04-13T22:05:59.647Z,100689.44
2023-04-13T22:08:03.261Z,100687.81
2023-04-13T22:10:07.486Z,100695.75
2023-04-13T22:12:11.573Z,100699.38
2023-04-13T22:14:14.955Z,100700.28
2023-04-13T22:16:18.403Z,100710.75
2023-04-13T22:18:23.439Z,100705.69
2023-04-13T22:20:26.787Z,100702.34
2023-04-13T22:22:30.686Z,100705.91
2023-04-13T22:24:34.009Z,100708.66
2023-04-13T22:26:37.295Z,100713.97
2023-04-13T22:28:40.852Z,100708.00
2023-04-13T22:30:44.996Z,100703.78
2023-04-13T22:32:48.473Z,100703.84
2023-04-13T22:34:53.260Z,100704.81
2023-04-13T22:36:56.753Z,100698.91
2023-04-13T22:39:00.169Z,100698.13
2023-04-13T22:41:07.678Z,100698.25
2023-04-13T22:43:10.944Z,100699.22
2023-04-13T22:45:14.453Z,100697.53
2023-04-13T22:47:17.730Z,100699.34
2023-04-13T22:49:21.079Z,100701.16
2023-04-13T22:51:26.681Z,100706.41
2023-04-13T22:53:30.359Z,100699.59
2023-04-13T22:55:33.809Z,100708.28
2023-04-13T22:57:37.164Z,100710.94
2023-04-13T22:59:40.786Z,100713.59
2023-04-13T23:01:44.251Z,100712.81
2023-04-13T23:03:47.856Z,100716.34
2023-04-13T23:05:51.306Z,100713.88
2023-04-13T23:07:56.026Z,100716.53
2023-04-13T23:09:59.343Z,100726.91
2023-04-13T23:12:02.678Z,100735.69
2023-04-13T23:14:06.720Z,100732.31
2023-04-13T23:16:10.127Z,100730.69
2023-04-13T23:18:13.617Z,100732.50
2023-04-13T23:20:16.953Z,100729.97
2023-04-13T23:22:20.430Z,100744.69
2023-04-13T23:24:25.783Z,100739.56
2023-04-13T23:26:29.184Z,100745.66
2023-04-13T23:28:32.554Z,100752.59
2023-04-13T23:30:35.865Z,100744.88
2023-04-13T23:32:39.313Z,100750.97
2023-04-13T23:34:42.675Z,100752.78
2023-04-13T23:36:46.062Z,100755.44
2023-04-13T23:38:49.384Z,100756.41
2023-04-13T23:40:54.799Z,100756.47
2023-04-13T23:42:58.260Z,100753.94
2023-04-13T23:45:01.617Z,100758.34
2023-04-13T23:47:05.014Z,100751.50
2023-04-13T23:49:08.553Z,100752.41
2023-04-13T23:51:11.961Z,100750.75
2023-04-13T23:53:16.470Z,100761.13
2023-04-13T23:55:19.989Z,100764.69
2023-04-13T23:57:24.853Z,100763.78
2023-04-13T23:59:28.352Z,100766.44
